TimeMDT,TemperatureF,Dew PointF,Humidity,Sea Level PressureIn,VisibilityMPH,Wind Direction,Wind SpeedMPH,Gust SpeedMPH,PrecipitationIn,Events,Conditions,WindDirDegrees,DateUTC
12:34 AM,35.6,33.8,93,30.16,2.0,South,3.5,-,N/A,,Scattered Clouds,170,2013-09-19 06:34:00
12:40 AM,35.6,33.8,93,30.16,1.2,Calm,Calm,-,N/A,,Scattered Clouds,0,2013-09-19 06:40:00
12:49 AM,35.6,32.0,87,30.16,3.0,Calm,Calm,-,N/A,,Partly Cloudy,0,2013-09-19 06:49:00
12:51 AM,35.1,32.0,89,30.19,3.0,Calm,Calm,-,N/A,,Partly Cloudy,0,2013-09-19 06:51:00
1:01 AM,33.8,32.0,93,30.16,1.8,Calm,Calm,-,N/A,,Mostly Cloudy,0,2013-09-19 07:01:00
1:07 AM,35.6,33.8,93,30.16,2.0,Calm,Calm,-,N/A,,Scattered Clouds,0,2013-09-19 07:07:00
1:17 AM,33.8,32.0,93,30.16,4.0,East,3.5,-,N/A,,Partly Cloudy,80,2013-09-19 07:17:00
1:47 AM,33.8,30.2,87,30.17,1.8,Calm,Calm,-,N/A,,Clear,0,2013-09-19 07:47:00
1:51 AM,32.0,30.9,96,30.19,1.2,Calm,Calm,-,N/A,,Clear,0,2013-09-19 07:51:00
1:57 AM,33.8,30.2,87,30.16,3.0,Calm,Calm,-,N/A,,Clear,0,2013-09-19 07:57:00
2:51 AM,32.0,30.0,92,30.19,6.0,Calm,Calm,-,N/A,,Clear,0,2013-09-19 08:51:00
3:18 AM,30.2,30.2,100,30.17,2.0,Calm,Calm,-,N/A,,Partly Cloudy,0,2013-09-19 09:18:00
3:22 AM,30.2,28.4,93,30.17,1.0,Calm,Calm,-,N/A,,Mist,0,2013-09-19 09:22:00
3:28 AM,30.2,28.4,93,30.17,0.2,Calm,Calm,-,N/A,Fog,Light Freezing Fog,0,2013-09-19 09:28:00
3:41 AM,30.2,28.4,93,30.17,1.2,Calm,Calm,-,N/A,,Mostly Cloudy,0,2013-09-19 09:41:00
3:48 AM,30.2,28.4,93,30.17,0.8,Calm,Calm,-,N/A,,Mist,0,2013-09-19 09:48:00
3:51 AM,30.9,28.9,92,30.19,0.5,Calm,Calm,-,N/A,Fog,Light Freezing Fog,0,2013-09-19 09:51:00
4:00 AM,32.0,30.2,93,30.17,1.2,Calm,Calm,-,N/A,,Overcast,0,2013-09-19 10:00:00
4:04 AM,32.0,30.2,93,30.17,3.0,Calm,Calm,-,N/A,,Mostly Cloudy,0,2013-09-19 10:04:00
4:15 AM,32.0,30.2,93,30.17,10.0,Calm,Calm,-,N/A,,Scattered Clouds,0,2013-09-19 10:15:00
4:25 AM,30.2,28.4,93,30.17,1.0,Calm,Calm,-,N/A,,Mist,0,2013-09-19 10:25:00
4:31 AM,30.2,28.4,93,30.17,0.2,Calm,Calm,-,N/A,Fog,Light Freezing Fog,0,2013-09-19 10:31:00
4:51 AM,30.9,28.9,92,30.20,0.8,NNE,3.5,-,N/A,,Mist,20,2013-09-19 10:51:00
4:53 AM,30.2,28.4,93,30.17,1.2,Calm,Calm,-,N/A,,Scattered Clouds,0,2013-09-19 10:53:00
4:57 AM,30.2,28.4,93,30.17,3.0,Calm,Calm,-,N/A,,Scattered Clouds,0,2013-09-19 10:57:00
5:27 AM,28.4,28.4,100,30.17,1.2,Calm,Calm,-,N/A,,Scattered Clouds,0,2013-09-19 11:27:00
5:29 AM,30.2,28.4,93,30.17,0.8,Calm,Calm,-,N/A,,Mist,0,2013-09-19 11:29:00
5:51 AM,28.9,28.0,96,30.20,0.2,Calm,Calm,-,N/A,Fog,Light Freezing Fog,0,2013-09-19 11:51:00
6:51 AM,28.9,28.0,96,30.21,0.2,Calm,Calm,-,N/A,Fog,Light Freezing Fog,0,2013-09-19 12:51:00
7:51 AM,28.9,27.0,92,30.23,0.2,Calm,Calm,-,N/A,Fog,Light Freezing Fog,0,2013-09-19 13:51:00
8:51 AM,30.0,28.9,96,30.25,0.2,Calm,Calm,-,N/A,Fog,Light Freezing Fog,0,2013-09-19 14:51:00
9:51 AM,33.1,33.1,100,30.25,0.2,Calm,Calm,-,N/A,Fog,Fog,0,2013-09-19 15:51:00
10:49 AM,39.2,37.4,93,30.21,1.5,Calm,Calm,-,N/A,,Overcast,0,2013-09-19 16:49:00
10:51 AM,39.0,37.0,93,30.23,2.0,Calm,Calm,-,N/A,,Overcast,0,2013-09-19 16:51:00
10:58 AM,39.2,37.4,93,30.21,10.0,SSW,4.6,-,N/A,,Overcast,210,2013-09-19 16:58:00
11:26 AM,41.0,37.4,87,30.20,10.0,Variable,3.5,-,N/A,,Scattered Clouds,0,2013-09-19 17:26:00
11:51 AM,44.1,39.9,85,30.22,10.0,Calm,Calm,-,N/A,,Clear,0,2013-09-19 17:51:00
12:51 PM,53.1,35.1,50,30.18,10.0,Variable,5.8,-,N/A,,Clear,0,2013-09-19 18:51:00
1:51 PM,57.0,33.1,40,30.16,10.0,SSE,6.9,-,N/A,,Clear,160,2013-09-19 19:51:00
2:51 PM,59.0,27.0,29,30.14,10.0,SE,8.1,-,N/A,,Clear,130,2013-09-19 20:51:00
3:51 PM,61.0,30.9,32,30.12,10.0,SSW,6.9,-,N/A,,Clear,200,2013-09-19 21:51:00
4:51 PM,62.1,30.0,30,30.09,10.0,South,9.2,-,N/A,,Clear,180,2013-09-19 22:51:00
5:51 PM,62.1,28.9,29,30.08,10.0,South,3.5,-,N/A,,Clear,170,2013-09-19 23:51:00
6:51 PM,61.0,30.9,32,30.07,10.0,South,4.6,-,N/A,,Clear,180,2013-09-20 00:51:00
7:51 PM,57.0,34.0,42,30.07,10.0,Calm,Calm,-,N/A,,Clear,0,2013-09-20 01:51:00
8:51 PM,48.9,36.0,61,30.10,10.0,NE,4.6,-,N/A,,Clear,50,2013-09-20 02:51:00
9:51 PM,46.9,34.0,61,30.10,10.0,NNE,4.6,-,N/A,,Clear,30,2013-09-20 03:51:00
10:51 PM,44.1,35.1,71,30.09,10.0,Calm,Calm,-,N/A,,Clear,0,2013-09-20 04:51:00
11:51 PM,39.9,32.0,73,30.09,10.0,Calm,Calm,-,N/A,,Clear,0,2013-09-20 05:51:00